createdAt,value
2023-01-25T00:01:34.871Z,0
2023-01-25T00:05:00.152Z,0
2023-01-25T00:08:25.435Z,0
2023-01-25T00:11:50.792Z,0
2023-01-25T00:15:16.085Z,0
2023-01-25T00:18:41.383Z,0
2023-01-25T00:22:06.728Z,0
2023-01-25T00:25:31.979Z,0
2023-01-25T00:28:57.311Z,0
2023-01-25T00:32:22.655Z,0
2023-01-25T00:35:47.868Z,0
2023-01-25T00:39:13.200Z,0
2023-01-25T00:42:38.507Z,0
2023-01-25T00:46:03.926Z,0
2023-01-25T00:49:29.153Z,0
2023-01-25T00:52:54.443Z,0
2023-01-25T00:56:19.749Z,0
2023-01-25T00:59:45.051Z,0
2023-01-25T01:03:10.358Z,0
2023-01-25T01:06:35.631Z,0
2023-01-25T01:10:00.929Z,0
2023-01-25T01:13:26.235Z,0
2023-01-25T01:16:51.607Z,0
2023-01-25T01:20:16.866Z,0
2023-01-25T01:23:42.134Z,0
2023-01-25T01:27:07.414Z,0
2023-01-25T01:30:33.555Z,0
2023-01-25T01:33:58.904Z,0
2023-01-25T01:37:24.237Z,0
2023-01-25T01:40:49.522Z,0
2023-01-25T01:44:14.807Z,0
2023-01-25T01:47:40.074Z,0
2023-01-25T01:51:05.338Z,0
2023-01-25T01:54:30.622Z,0
2023-01-25T01:57:55.894Z,0
2023-01-25T02:01:21.237Z,0
2023-01-25T02:04:46.477Z,0
2023-01-25T02:08:11.749Z,0
2023-01-25T02:11:37.034Z,0
2023-01-25T02:15:02.296Z,0
2023-01-25T02:18:27.568Z,0
2023-01-25T02:21:52.867Z,0
2023-01-25T02:25:18.150Z,0
2023-01-25T02:28:43.488Z,0
2023-01-25T02:32:10.447Z,0
2023-01-25T02:35:35.686Z,0
2023-01-25T02:39:00.965Z,0
2023-01-25T02:42:26.223Z,0
2023-01-25T02:45:51.535Z,0
2023-01-25T02:49:16.732Z,0
2023-01-25T02:52:41.974Z,0
2023-01-25T02:56:07.233Z,0
2023-01-25T02:59:32.487Z,0
2023-01-25T03:02:57.870Z,0
2023-01-25T03:06:23.019Z,0
2023-01-25T03:09:48.265Z,0
2023-01-25T03:13:13.515Z,0
2023-01-25T03:16:38.856Z,0
2023-01-25T03:20:04.081Z,0
2023-01-25T03:23:29.318Z,0
2023-01-25T03:26:54.565Z,0
2023-01-25T03:30:19.808Z,0
2023-01-25T03:33:45.087Z,0
2023-01-25T03:37:10.381Z,0
2023-01-25T03:40:35.629Z,0
2023-01-25T03:44:00.946Z,0
2023-01-25T03:47:26.195Z,0
2023-01-25T03:50:51.472Z,0
2023-01-25T03:54:16.786Z,0
2023-01-25T03:57:42.044Z,0
2023-01-25T04:01:07.577Z,0
2023-01-25T04:04:32.658Z,0
2023-01-25T04:07:57.950Z,0
2023-01-25T04:11:23.277Z,0
2023-01-25T04:14:48.530Z,0
2023-01-25T04:18:13.860Z,0
2023-01-25T04:21:39.160Z,0
2023-01-25T04:25:04.432Z,0
2023-01-25T04:28:29.741Z,0
2023-01-25T04:31:55.104Z,0
2023-01-25T04:35:20.315Z,0
2023-01-25T04:38:45.799Z,0
2023-01-25T04:42:31.286Z,0
2023-01-25T04:45:56.654Z,0
2023-01-25T04:49:21.815Z,0
2023-01-25T04:52:47.101Z,0
2023-01-25T04:56:12.363Z,0
2023-01-25T04:59:37.612Z,0
2023-01-25T05:03:02.882Z,0
2023-01-25T05:06:28.095Z,0
2023-01-25T05:09:53.344Z,0
2023-01-25T05:13:18.587Z,0
2023-01-25T05:16:43.916Z,0
2023-01-25T05:20:09.144Z,0
2023-01-25T05:23:34.358Z,0
2023-01-25T05:26:59.698Z,6
2023-01-25T05:30:24.990Z,0
2023-01-25T05:33:57.089Z,0
2023-01-25T05:37:22.385Z,0
2023-01-25T05:40:47.591Z,0
2023-01-25T05:44:12.839Z,0
2023-01-25T05:47:38.082Z,0
2023-01-25T05:51:03.308Z,0
2023-01-25T05:54:28.573Z,0
2023-01-25T05:57:53.802Z,0
2023-01-25T06:01:19.048Z,0
2023-01-25T06:04:44.283Z,0
2023-01-25T06:08:09.536Z,0
2023-01-25T06:11:34.822Z,1
2023-01-25T06:15:00.070Z,1
2023-01-25T06:18:25.335Z,1
2023-01-25T06:21:50.646Z,1
2023-01-25T06:25:15.990Z,2
2023-01-25T06:28:41.304Z,1
2023-01-25T06:32:06.526Z,2
2023-01-25T06:35:31.805Z,3
2023-01-25T06:38:57.139Z,4
2023-01-25T06:42:22.420Z,12
2023-01-25T06:45:47.800Z,16
2023-01-25T06:49:13.111Z,22
2023-01-25T06:52:38.395Z,31
2023-01-25T06:56:03.663Z,41
2023-01-25T06:59:28.954Z,52
2023-01-25T07:02:54.336Z,65
2023-01-25T07:06:19.476Z,81
2023-01-25T07:09:44.743Z,102
2023-01-25T07:13:10.006Z,122
2023-01-25T07:16:35.299Z,151
2023-01-25T07:20:00.700Z,176
2023-01-25T07:23:25.970Z,210
2023-01-25T07:26:51.302Z,238
2023-01-25T07:30:16.592Z,268
2023-01-25T07:33:41.894Z,308
2023-01-25T07:37:07.197Z,335
2023-01-25T07:40:32.512Z,386
2023-01-25T07:43:57.818Z,419
2023-01-25T07:47:23.125Z,443
2023-01-25T07:50:48.483Z,462
2023-01-25T07:54:13.812Z,505
2023-01-25T07:57:39.083Z,564
2023-01-25T08:01:04.451Z,618
2023-01-25T08:04:29.807Z,644
2023-01-25T08:07:55.126Z,671
2023-01-25T08:11:20.421Z,689
2023-01-25T08:14:45.695Z,702
2023-01-25T08:18:10.934Z,733
2023-01-25T08:21:36.256Z,758
2023-01-25T08:25:01.540Z,808
2023-01-25T08:28:26.975Z,868
2023-01-25T08:31:52.284Z,914
2023-01-25T08:35:17.522Z,1003
2023-01-25T08:38:42.813Z,1049
2023-01-25T08:42:08.087Z,1140
2023-01-25T08:45:34.046Z,1091
2023-01-25T08:48:59.351Z,1185
2023-01-25T08:52:24.687Z,1277
2023-01-25T08:55:49.981Z,1310
2023-01-25T08:59:15.272Z,1373
2023-01-25T09:02:40.598Z,1442
2023-01-25T09:06:05.801Z,1425
2023-01-25T09:09:31.168Z,1453
2023-01-25T09:12:56.569Z,1480
2023-01-25T09:16:21.868Z,1517
2023-01-25T09:19:47.370Z,1544
2023-01-25T09:23:12.599Z,1667
2023-01-25T09:26:37.888Z,1711
2023-01-25T09:30:04.271Z,1757
2023-01-25T09:33:28.395Z,1814
2023-01-25T09:36:53.964Z,1953
2023-01-25T09:40:19.201Z,2069
2023-01-25T09:43:44.660Z,2026
2023-01-25T09:47:09.933Z,2048
2023-01-25T09:50:35.204Z,2062
2023-01-25T09:54:00.477Z,2149
2023-01-25T09:57:25.713Z,2336
2023-01-25T10:00:50.960Z,2273
2023-01-25T10:04:16.195Z,2260
2023-01-25T10:07:41.471Z,2328
2023-01-25T10:11:06.735Z,2331
2023-01-25T10:14:31.949Z,2453
2023-01-25T10:17:57.208Z,2618
2023-01-25T10:21:22.508Z,2687
2023-01-25T10:24:47.757Z,2578
2023-01-25T10:28:13.001Z,2561
2023-01-25T10:31:38.255Z,3015
2023-01-25T10:35:03.472Z,3222
2023-01-25T10:38:28.732Z,2878
2023-01-25T10:41:54.577Z,2832
2023-01-25T10:45:19.845Z,2928
2023-01-25T10:48:45.062Z,2738
2023-01-25T10:52:10.535Z,2698
2023-01-25T10:55:35.774Z,2567
2023-01-25T10:59:01.091Z,2410
2023-01-25T11:02:26.953Z,2722
2023-01-25T11:05:52.169Z,2810
2023-01-25T11:09:17.451Z,2999
2023-01-25T11:12:42.717Z,3232
2023-01-25T11:16:07.967Z,3157
2023-01-25T11:19:33.391Z,3332
2023-01-25T11:22:58.652Z,3355
2023-01-25T11:26:26.425Z,3365
2023-01-25T11:29:51.685Z,3197
2023-01-25T11:33:16.993Z,3502
2023-01-25T11:36:42.404Z,3196
2023-01-25T11:40:08.010Z,3405
2023-01-25T11:43:32.908Z,3235
2023-01-25T11:46:58.194Z,3192
2023-01-25T11:50:23.456Z,3155
2023-01-25T11:53:48.718Z,3180
2023-01-25T11:57:21.046Z,3489
2023-01-25T12:00:46.323Z,3455
2023-01-25T12:04:11.611Z,3383
2023-01-25T12:07:36.854Z,3502
2023-01-25T12:11:02.185Z,3383
2023-01-25T12:14:27.462Z,3260
2023-01-25T12:17:52.764Z,3263
2023-01-25T12:21:30.159Z,2826
2023-01-25T12:24:43.243Z,2439
2023-01-25T12:28:08.537Z,2387
2023-01-25T12:31:33.838Z,2423
2023-01-25T12:35:00.235Z,2826
2023-01-25T12:38:25.522Z,3000
2023-01-25T12:41:50.800Z,2757
2023-01-25T12:45:16.095Z,2891
2023-01-25T12:48:41.306Z,2853
2023-01-25T12:52:06.607Z,2608
2023-01-25T12:55:31.824Z,2706
2023-01-25T12:58:57.090Z,2725
2023-01-25T13:02:22.468Z,2719
2023-01-25T13:05:47.622Z,2585
2023-01-25T13:09:12.837Z,2762
2023-01-25T13:12:38.086Z,2808
2023-01-25T13:16:03.370Z,2740
2023-01-25T13:19:28.637Z,2599
2023-01-25T13:22:53.926Z,2511
2023-01-25T13:26:19.173Z,2457
2023-01-25T13:29:44.489Z,2441
2023-01-25T13:33:09.767Z,2523
2023-01-25T13:36:35.039Z,2307
2023-01-25T13:40:07.750Z,2173
2023-01-25T13:43:26.003Z,2140
2023-01-25T13:46:51.285Z,1455
2023-01-25T13:50:16.598Z,1469
2023-01-25T13:53:42.123Z,1510
2023-01-25T13:57:07.369Z,1316
2023-01-25T14:00:32.702Z,1369
2023-01-25T14:03:57.993Z,1526
2023-01-25T14:07:23.365Z,1533
2023-01-25T14:10:48.713Z,1442
2023-01-25T14:14:13.987Z,1305
2023-01-25T14:17:39.283Z,1234
2023-01-25T14:21:07.119Z,1229
2023-01-25T14:24:30.260Z,1237
2023-01-25T14:27:55.561Z,1206
2023-01-25T15:03:33.512Z,0
2023-01-25T15:07:01.088Z,575
2023-01-25T15:10:24.124Z,528
2023-01-25T15:13:49.492Z,486
2023-01-25T15:17:14.797Z,433
2023-01-25T15:20:40.132Z,381
2023-01-25T15:24:05.418Z,345
2023-01-25T15:27:30.650Z,320
2023-01-25T15:30:56.054Z,276
2023-01-25T15:34:21.276Z,218
2023-01-25T15:37:49.002Z,179
2023-01-25T15:41:11.860Z,149
2023-01-25T15:44:37.206Z,123
2023-01-25T15:48:02.489Z,98
2023-01-25T15:51:27.806Z,75
2023-01-25T15:55:01.281Z,58
2023-01-25T15:58:18.401Z,43
2023-01-25T16:01:43.693Z,31
2023-01-25T16:05:08.969Z,20
2023-01-25T16:08:34.487Z,14
2023-01-25T16:11:59.775Z,7
2023-01-25T16:15:25.022Z,4
2023-01-25T16:18:50.280Z,3
2023-01-25T16:22:15.549Z,2
2023-01-25T16:25:40.810Z,1
2023-01-25T16:29:06.053Z,1
2023-01-25T16:32:31.347Z,1
2023-01-25T16:35:56.634Z,0
2023-01-25T16:39:21.911Z,1
2023-01-25T16:42:47.126Z,1
2023-01-25T16:46:12.507Z,0
2023-01-25T16:49:37.738Z,0
2023-01-25T16:53:03.102Z,0
2023-01-25T16:56:28.365Z,0
2023-01-25T16:59:53.816Z,0
2023-01-25T17:03:19.082Z,0
2023-01-25T17:06:45.455Z,0
2023-01-25T17:10:11.146Z,0
2023-01-25T17:13:36.163Z,0
2023-01-25T17:17:01.502Z,0
2023-01-25T17:20:26.855Z,0
2023-01-25T17:23:52.153Z,0
2023-01-25T17:27:17.477Z,0
2023-01-25T17:30:42.828Z,0
2023-01-25T17:34:08.037Z,0
2023-01-25T17:37:33.341Z,0
2023-01-25T17:40:58.651Z,0
2023-01-25T17:44:23.940Z,0
2023-01-25T17:47:49.217Z,0
2023-01-25T17:51:14.532Z,0
2023-01-25T17:54:39.866Z,0
2023-01-25T17:58:05.158Z,0
2023-01-25T18:01:30.535Z,0
2023-01-25T18:04:55.756Z,0
2023-01-25T18:08:21.062Z,0
2023-01-25T18:11:46.356Z,0
2023-01-25T18:15:11.848Z,0
2023-01-25T18:18:36.883Z,0
2023-01-25T18:22:02.148Z,0
2023-01-25T18:25:27.437Z,0
2023-01-25T18:28:52.720Z,0
2023-01-25T18:32:18.107Z,0
2023-01-25T18:35:43.341Z,0
2023-01-25T18:39:08.655Z,0
2023-01-25T18:42:33.937Z,0
2023-01-25T18:45:59.227Z,0
2023-01-25T18:49:24.471Z,0
2023-01-25T18:52:49.709Z,0
2023-01-25T18:56:14.966Z,0
2023-01-25T18:59:40.240Z,0
2023-01-25T19:03:05.572Z,0
2023-01-25T19:06:30.811Z,0
2023-01-25T19:09:56.086Z,0
2023-01-25T19:13:21.415Z,0
2023-01-25T19:16:46.711Z,0
2023-01-25T19:20:12.002Z,0
2023-01-25T19:23:37.266Z,0
2023-01-25T19:27:02.525Z,0
2023-01-25T19:30:29.483Z,0
2023-01-25T19:33:53.080Z,0
2023-01-25T19:37:18.342Z,0
2023-01-25T19:40:43.634Z,0
2023-01-25T19:44:08.916Z,0
2023-01-25T19:47:34.175Z,0
2023-01-25T19:50:59.473Z,0
2023-01-25T19:54:24.815Z,0
2023-01-25T19:57:50.076Z,0
2023-01-25T20:01:15.329Z,0
2023-01-25T20:04:40.595Z,0
2023-01-25T20:08:05.845Z,0
2023-01-25T20:11:31.178Z,0
2023-01-25T20:14:56.408Z,0
2023-01-25T20:18:21.690Z,0
2023-01-25T20:21:46.936Z,0
2023-01-25T20:25:12.356Z,0
2023-01-25T20:28:37.469Z,0
2023-01-25T20:32:02.838Z,0
2023-01-25T20:35:27.987Z,0
2023-01-25T20:38:53.756Z,0
2023-01-25T20:42:19.032Z,0
2023-01-25T20:45:44.333Z,0
2023-01-25T20:49:09.569Z,0
2023-01-25T20:52:34.835Z,0
2023-01-25T20:56:00.161Z,0
2023-01-25T20:59:25.457Z,0
2023-01-25T21:02:50.767Z,0
2023-01-25T21:06:15.999Z,0
2023-01-25T21:09:42.885Z,0
2023-01-25T21:13:06.529Z,0
2023-01-25T21:16:31.814Z,0
2023-01-25T21:19:57.108Z,0
2023-01-25T21:23:22.338Z,0
2023-01-25T21:26:47.607Z,0
2023-01-25T21:30:12.882Z,0
2023-01-25T21:33:38.134Z,0
2023-01-25T21:37:03.413Z,0
2023-01-25T21:40:28.618Z,0
2023-01-25T21:43:54.406Z,0
2023-01-25T21:47:29.765Z,0
2023-01-25T21:50:44.904Z,0
2023-01-25T21:54:10.195Z,0
2023-01-25T21:57:35.425Z,0
2023-01-25T22:01:00.679Z,0
2023-01-25T22:04:25.954Z,0
2023-01-25T22:07:51.181Z,0
2023-01-25T22:11:16.462Z,0
2023-01-25T22:14:41.674Z,0
2023-01-25T22:18:06.966Z,0
2023-01-25T22:21:32.266Z,0
2023-01-25T22:24:57.560Z,0
2023-01-25T22:28:22.847Z,0
2023-01-25T22:31:48.163Z,0
2023-01-25T22:35:13.350Z,0
2023-01-25T22:38:38.583Z,0
2023-01-25T22:42:03.835Z,0
2023-01-25T22:45:29.128Z,0
2023-01-25T22:48:54.372Z,0
2023-01-25T22:52:19.641Z,0
2023-01-25T22:55:44.912Z,0
2023-01-25T22:59:10.236Z,0
2023-01-25T23:02:37.931Z,0
2023-01-25T23:06:00.791Z,0
2023-01-25T23:09:26.013Z,0
2023-01-25T23:12:51.270Z,0
2023-01-25T23:16:16.585Z,0
2023-01-25T23:19:41.820Z,0
2023-01-25T23:23:07.066Z,0
2023-01-25T23:26:32.305Z,0
2023-01-25T23:29:57.548Z,0
2023-01-25T23:33:22.829Z,0
2023-01-25T23:36:48.136Z,0
2023-01-25T23:40:13.634Z,0
2023-01-25T23:43:38.645Z,0
2023-01-25T23:47:03.899Z,0
2023-01-25T23:50:29.170Z,0
2023-01-25T23:53:54.436Z,0
2023-01-25T23:57:19.660Z,0
